sensor_id;sensor_type;location;lat;lon;timestamp;temperature;humidity
20102;DHT22;10210;52.284;9.892;2022-08-19T00:00:38;24.70;99.90
20102;DHT22;10210;52.284;9.892;2022-08-19T00:03:06;24.70;99.90
20102;DHT22;10210;52.284;9.892;2022-08-19T00:05:32;24.70;99.90
20102;DHT22;10210;52.284;9.892;2022-08-19T00:07:58;24.70;99.90
20102;DHT22;10210;52.284;9.892;2022-08-19T00:10:25;24.70;99.90
20102;DHT22;10210;52.284;9.892;2022-08-19T00:12:51;24.60;99.90
20102;DHT22;10210;52.284;9.892;2022-08-19T00:15:19;24.60;99.90
20102;DHT22;10210;52.284;9.892;2022-08-19T00:17:46;24.60;99.90
20102;DHT22;10210;52.284;9.892;2022-08-19T00:20:16;24.50;99.90
20102;DHT22;10210;52.284;9.892;2022-08-19T00:22:45;24.50;99.90
20102;DHT22;10210;52.284;9.892;2022-08-19T00:25:13;24.50;99.90
20102;DHT22;10210;52.284;9.892;2022-08-19T00:27:39;24.40;99.90
20102;DHT22;10210;52.284;9.892;2022-08-19T00:30:07;24.30;99.90
20102;DHT22;10210;52.284;9.892;2022-08-19T00:32:35;24.30;99.90
20102;DHT22;10210;52.284;9.892;2022-08-19T00:35:01;24.20;99.90
20102;DHT22;10210;52.284;9.892;2022-08-19T00:37:28;24.20;99.90
20102;DHT22;10210;52.284;9.892;2022-08-19T00:39:54;24.10;99.90
20102;DHT22;10210;52.284;9.892;2022-08-19T00:42:22;24.10;99.90
20102;DHT22;10210;52.284;9.892;2022-08-19T00:44:48;24.10;99.90
20102;DHT22;10210;52.284;9.892;2022-08-19T00:47:15;24.00;99.90
20102;DHT22;10210;52.284;9.892;2022-08-19T00:49:48;24.00;99.90
20102;DHT22;10210;52.284;9.892;2022-08-19T00:52:23;24.00;99.90
20102;DHT22;10210;52.284;9.892;2022-08-19T00:54:55;24.00;99.90
20102;DHT22;10210;52.284;9.892;2022-08-19T00:57:28;23.90;99.90
20102;DHT22;10210;52.284;9.892;2022-08-19T01:00:00;23.90;99.90
20102;DHT22;10210;52.284;9.892;2022-08-19T01:02:29;23.90;99.90
20102;DHT22;10210;52.284;9.892;2022-08-19T01:04:56;23.90;99.90
20102;DHT22;10210;52.284;9.892;2022-08-19T01:07:22;23.90;99.90
20102;DHT22;10210;52.284;9.892;2022-08-19T01:09:49;23.90;99.90
20102;DHT22;10210;52.284;9.892;2022-08-19T01:12:16;23.90;99.90
20102;DHT22;10210;52.284;9.892;2022-08-19T01:14:43;23.90;99.90
20102;DHT22;10210;52.284;9.892;2022-08-19T01:17:11;24.00;99.90
20102;DHT22;10210;52.284;9.892;2022-08-19T01:19:40;24.00;99.90
20102;DHT22;10210;52.284;9.892;2022-08-19T01:22:29;24.00;99.90
20102;DHT22;10210;52.284;9.892;2022-08-19T01:24:57;24.00;99.90
20102;DHT22;10210;52.284;9.892;2022-08-19T01:27:24;24.00;99.90
20102;DHT22;10210;52.284;9.892;2022-08-19T01:29:50;24.00;99.90
20102;DHT22;10210;52.284;9.892;2022-08-19T01:32:17;24.00;99.90
20102;DHT22;10210;52.284;9.892;2022-08-19T01:34:44;24.00;99.90
20102;DHT22;10210;52.284;9.892;2022-08-19T01:37:13;24.00;99.90
20102;DHT22;10210;52.284;9.892;2022-08-19T01:39:40;24.00;99.90
20102;DHT22;10210;52.284;9.892;2022-08-19T01:42:08;23.90;99.90
20102;DHT22;10210;52.284;9.892;2022-08-19T01:44:37;23.90;99.90
20102;DHT22;10210;52.284;9.892;2022-08-19T01:47:04;23.90;99.90
20102;DHT22;10210;52.284;9.892;2022-08-19T01:49:30;23.90;99.90
20102;DHT22;10210;52.284;9.892;2022-08-19T01:51:56;23.80;99.90
20102;DHT22;10210;52.284;9.892;2022-08-19T01:54:24;23.80;99.90
20102;DHT22;10210;52.284;9.892;2022-08-19T01:57:13;23.80;99.90
20102;DHT22;10210;52.284;9.892;2022-08-19T01:59:42;23.70;99.90
20102;DHT22;10210;52.284;9.892;2022-08-19T02:02:08;23.70;99.90
20102;DHT22;10210;52.284;9.892;2022-08-19T02:04:35;23.60;99.90
20102;DHT22;10210;52.284;9.892;2022-08-19T02:07:03;23.60;99.90
20102;DHT22;10210;52.284;9.892;2022-08-19T02:09:30;23.60;99.90
20102;DHT22;10210;52.284;9.892;2022-08-19T02:11:56;23.50;99.90
20102;DHT22;10210;52.284;9.892;2022-08-19T02:14:25;23.50;99.90
20102;DHT22;10210;52.284;9.892;2022-08-19T02:16:51;23.50;99.90
20102;DHT22;10210;52.284;9.892;2022-08-19T02:19:17;23.40;99.90
20102;DHT22;10210;52.284;9.892;2022-08-19T02:21:42;23.40;99.90
20102;DHT22;10210;52.284;9.892;2022-08-19T02:24:09;23.30;99.90
20102;DHT22;10210;52.284;9.892;2022-08-19T02:26:35;23.30;99.90
20102;DHT22;10210;52.284;9.892;2022-08-19T02:29:01;23.30;99.90
20102;DHT22;10210;52.284;9.892;2022-08-19T02:31:26;23.30;99.90
20102;DHT22;10210;52.284;9.892;2022-08-19T02:33:53;23.30;99.90
20102;DHT22;10210;52.284;9.892;2022-08-19T02:36:21;23.30;99.90
20102;DHT22;10210;52.284;9.892;2022-08-19T02:38:47;23.30;99.90
20102;DHT22;10210;52.284;9.892;2022-08-19T02:41:24;23.30;99.90
20102;DHT22;10210;52.284;9.892;2022-08-19T02:43:52;23.40;99.90
20102;DHT22;10210;52.284;9.892;2022-08-19T02:46:24;23.40;99.90
20102;DHT22;10210;52.284;9.892;2022-08-19T02:48:54;23.50;99.90
20102;DHT22;10210;52.284;9.892;2022-08-19T02:51:25;23.50;99.90
20102;DHT22;10210;52.284;9.892;2022-08-19T02:53:59;23.50;99.90
20102;DHT22;10210;52.284;9.892;2022-08-19T02:56:25;23.50;99.90
20102;DHT22;10210;52.284;9.892;2022-08-19T02:58:54;23.50;99.90
20102;DHT22;10210;52.284;9.892;2022-08-19T03:01:27;23.60;99.90
20102;DHT22;10210;52.284;9.892;2022-08-19T03:03:55;23.50;99.90
20102;DHT22;10210;52.284;9.892;2022-08-19T03:06:22;23.60;99.90
20102;DHT22;10210;52.284;9.892;2022-08-19T03:08:49;23.60;99.90
20102;DHT22;10210;52.284;9.892;2022-08-19T03:11:15;23.60;99.90
20102;DHT22;10210;52.284;9.892;2022-08-19T03:13:43;23.30;99.90
20102;DHT22;10210;52.284;9.892;2022-08-19T03:16:10;23.40;99.90
20102;DHT22;10210;52.284;9.892;2022-08-19T03:18:36;23.50;99.90
20102;DHT22;10210;52.284;9.892;2022-08-19T03:21:03;23.50;99.90
20102;DHT22;10210;52.284;9.892;2022-08-19T03:23:28;23.60;99.90
20102;DHT22;10210;52.284;9.892;2022-08-19T03:25:54;23.60;99.90
20102;DHT22;10210;52.284;9.892;2022-08-19T03:28:22;23.60;99.90
20102;DHT22;10210;52.284;9.892;2022-08-19T03:31:00;23.60;99.90
20102;DHT22;10210;52.284;9.892;2022-08-19T03:33:29;23.60;99.90
20102;DHT22;10210;52.284;9.892;2022-08-19T03:36:10;23.60;99.90
20102;DHT22;10210;52.284;9.892;2022-08-19T03:38:43;23.60;99.90
20102;DHT22;10210;52.284;9.892;2022-08-19T03:41:18;23.60;99.90
20102;DHT22;10210;52.284;9.892;2022-08-19T03:43:53;23.50;99.90
20102;DHT22;10210;52.284;9.892;2022-08-19T03:46:22;23.50;99.90
20102;DHT22;10210;52.284;9.892;2022-08-19T03:48:56;23.50;99.90
20102;DHT22;10210;52.284;9.892;2022-08-19T03:51:32;23.50;99.90
20102;DHT22;10210;52.284;9.892;2022-08-19T03:54:02;23.50;99.90
20102;DHT22;10210;52.284;9.892;2022-08-19T03:56:30;23.40;99.90
20102;DHT22;10210;52.284;9.892;2022-08-19T03:58:59;23.40;99.90
20102;DHT22;10210;52.284;9.892;2022-08-19T04:01:27;23.40;99.90
20102;DHT22;10210;52.284;9.892;2022-08-19T04:03:55;23.30;99.90
20102;DHT22;10210;52.284;9.892;2022-08-19T04:06:26;23.30;99.90
20102;DHT22;10210;52.284;9.892;2022-08-19T04:08:57;23.20;99.90
20102;DHT22;10210;52.284;9.892;2022-08-19T04:11:27;23.20;99.90
20102;DHT22;10210;52.284;9.892;2022-08-19T04:13:55;23.20;99.90
20102;DHT22;10210;52.284;9.892;2022-08-19T04:16:24;23.10;99.90
20102;DHT22;10210;52.284;9.892;2022-08-19T04:18:54;23.10;99.90
20102;DHT22;10210;52.284;9.892;2022-08-19T04:21:24;23.10;99.90
20102;DHT22;10210;52.284;9.892;2022-08-19T04:23:52;23.10;99.90
20102;DHT22;10210;52.284;9.892;2022-08-19T04:26:24;23.00;99.90
20102;DHT22;10210;52.284;9.892;2022-08-19T04:29:01;23.00;99.90
20102;DHT22;10210;52.284;9.892;2022-08-19T04:31:37;22.90;99.90
20102;DHT22;10210;52.284;9.892;2022-08-19T04:34:07;22.90;99.90
20102;DHT22;10210;52.284;9.892;2022-08-19T04:36:38;22.90;99.90
20102;DHT22;10210;52.284;9.892;2022-08-19T04:39:09;22.90;99.90
20102;DHT22;10210;52.284;9.892;2022-08-19T04:41:42;22.80;99.90
20102;DHT22;10210;52.284;9.892;2022-08-19T04:44:26;22.80;99.90
20102;DHT22;10210;52.284;9.892;2022-08-19T04:46:57;22.80;99.90
20102;DHT22;10210;52.284;9.892;2022-08-19T04:49:23;22.80;99.90
20102;DHT22;10210;52.284;9.892;2022-08-19T04:51:53;22.80;99.90
20102;DHT22;10210;52.284;9.892;2022-08-19T04:54:21;22.80;99.90
20102;DHT22;10210;52.284;9.892;2022-08-19T04:56:50;22.80;99.90
20102;DHT22;10210;52.284;9.892;2022-08-19T04:59:18;22.80;99.90
20102;DHT22;10210;52.284;9.892;2022-08-19T05:01:46;22.90;99.90
20102;DHT22;10210;52.284;9.892;2022-08-19T05:04:17;22.90;99.90
20102;DHT22;10210;52.284;9.892;2022-08-19T05:06:46;22.90;99.90
20102;DHT22;10210;52.284;9.892;2022-08-19T05:09:13;22.90;99.90
20102;DHT22;10210;52.284;9.892;2022-08-19T05:11:41;22.90;99.90
20102;DHT22;10210;52.284;9.892;2022-08-19T05:14:10;22.90;99.90
20102;DHT22;10210;52.284;9.892;2022-08-19T05:16:39;22.90;99.90
20102;DHT22;10210;52.284;9.892;2022-08-19T05:19:06;22.90;99.90
20102;DHT22;10210;52.284;9.892;2022-08-19T05:21:52;22.90;99.90
20102;DHT22;10210;52.284;9.892;2022-08-19T05:24:37;22.80;99.90
20102;DHT22;10210;52.284;9.892;2022-08-19T05:27:03;22.80;99.90
20102;DHT22;10210;52.284;9.892;2022-08-19T05:29:31;22.70;99.90
20102;DHT22;10210;52.284;9.892;2022-08-19T05:31:59;22.70;99.90
20102;DHT22;10210;52.284;9.892;2022-08-19T05:34:26;22.70;99.90
20102;DHT22;10210;52.284;9.892;2022-08-19T05:36:58;22.70;99.90
20102;DHT22;10210;52.284;9.892;2022-08-19T05:39:28;22.60;99.90
20102;DHT22;10210;52.284;9.892;2022-08-19T05:41:58;22.60;99.90
20102;DHT22;10210;52.284;9.892;2022-08-19T05:44:28;22.60;99.90
20102;DHT22;10210;52.284;9.892;2022-08-19T05:47:01;22.60;99.90
20102;DHT22;10210;52.284;9.892;2022-08-19T05:49:30;22.60;99.90
20102;DHT22;10210;52.284;9.892;2022-08-19T05:51:58;22.60;99.90
20102;DHT22;10210;52.284;9.892;2022-08-19T05:54:26;22.60;99.90
20102;DHT22;10210;52.284;9.892;2022-08-19T05:56:53;22.60;99.90
20102;DHT22;10210;52.284;9.892;2022-08-19T05:59:20;22.60;99.90
20102;DHT22;10210;52.284;9.892;2022-08-19T06:01:48;22.60;99.90
20102;DHT22;10210;52.284;9.892;2022-08-19T06:04:20;22.60;99.90
20102;DHT22;10210;52.284;9.892;2022-08-19T06:06:49;22.60;99.90
20102;DHT22;10210;52.284;9.892;2022-08-19T06:09:18;22.60;99.90
20102;DHT22;10210;52.284;9.892;2022-08-19T06:11:50;22.60;99.90
20102;DHT22;10210;52.284;9.892;2022-08-19T06:14:22;22.60;99.90
20102;DHT22;10210;52.284;9.892;2022-08-19T06:16:50;22.70;99.90
20102;DHT22;10210;52.284;9.892;2022-08-19T06:19:19;22.70;99.90
20102;DHT22;10210;52.284;9.892;2022-08-19T06:21:48;22.70;99.90
20102;DHT22;10210;52.284;9.892;2022-08-19T06:24:19;22.70;99.90
20102;DHT22;10210;52.284;9.892;2022-08-19T06:26:52;22.70;99.90
20102;DHT22;10210;52.284;9.892;2022-08-19T06:29:23;22.70;99.90
20102;DHT22;10210;52.284;9.892;2022-08-19T06:31:53;22.70;99.90
20102;DHT22;10210;52.284;9.892;2022-08-19T06:34:21;22.70;99.90
20102;DHT22;10210;52.284;9.892;2022-08-19T06:36:50;22.60;99.90
20102;DHT22;10210;52.284;9.892;2022-08-19T06:39:20;22.70;99.90
20102;DHT22;10210;52.284;9.892;2022-08-19T06:41:50;22.60;99.90
20102;DHT22;10210;52.284;9.892;2022-08-19T06:44:19;22.60;99.90
20102;DHT22;10210;52.284;9.892;2022-08-19T06:46:48;22.70;99.90
20102;DHT22;10210;52.284;9.892;2022-08-19T06:49:15;22.70;99.90
20102;DHT22;10210;52.284;9.892;2022-08-19T06:51:45;22.70;99.90
20102;DHT22;10210;52.284;9.892;2022-08-19T06:54:18;22.60;99.90
20102;DHT22;10210;52.284;9.892;2022-08-19T06:56:44;22.60;99.90
20102;DHT22;10210;52.284;9.892;2022-08-19T06:59:14;22.60;99.90
20102;DHT22;10210;52.284;9.892;2022-08-19T07:01:47;22.60;99.90
20102;DHT22;10210;52.284;9.892;2022-08-19T07:04:17;22.70;99.90
20102;DHT22;10210;52.284;9.892;2022-08-19T07:06:49;22.70;99.90
20102;DHT22;10210;52.284;9.892;2022-08-19T07:09:21;22.70;99.90
20102;DHT22;10210;52.284;9.892;2022-08-19T07:11:52;22.80;99.90
20102;DHT22;10210;52.284;9.892;2022-08-19T07:14:21;22.70;99.90
20102;DHT22;10210;52.284;9.892;2022-08-19T07:16:50;22.70;99.90
20102;DHT22;10210;52.284;9.892;2022-08-19T07:19:20;22.70;99.90
20102;DHT22;10210;52.284;9.892;2022-08-19T07:21:49;22.70;99.90
20102;DHT22;10210;52.284;9.892;2022-08-19T07:24:21;22.80;99.90
20102;DHT22;10210;52.284;9.892;2022-08-19T07:26:52;22.80;99.90
20102;DHT22;10210;52.284;9.892;2022-08-19T07:29:19;22.80;99.90
20102;DHT22;10210;52.284;9.892;2022-08-19T07:31:52;22.90;99.90
20102;DHT22;10210;52.284;9.892;2022-08-19T07:34:22;23.00;99.90
20102;DHT22;10210;52.284;9.892;2022-08-19T07:36:49;23.00;99.90
20102;DHT22;10210;52.284;9.892;2022-08-19T07:39:22;23.10;99.90
20102;DHT22;10210;52.284;9.892;2022-08-19T07:41:51;23.10;99.90
20102;DHT22;10210;52.284;9.892;2022-08-19T07:44:18;23.20;99.90
20102;DHT22;10210;52.284;9.892;2022-08-19T07:46:48;23.20;99.90
20102;DHT22;10210;52.284;9.892;2022-08-19T07:49:16;23.20;99.90
20102;DHT22;10210;52.284;9.892;2022-08-19T07:51:57;23.30;99.90
20102;DHT22;10210;52.284;9.892;2022-08-19T07:54:28;23.30;99.90
20102;DHT22;10210;52.284;9.892;2022-08-19T07:56:57;23.30;99.90
20102;DHT22;10210;52.284;9.892;2022-08-19T07:59:26;23.30;99.90
20102;DHT22;10210;52.284;9.892;2022-08-19T08:01:53;23.30;99.90
20102;DHT22;10210;52.284;9.892;2022-08-19T08:04:20;23.30;99.90
20102;DHT22;10210;52.284;9.892;2022-08-19T08:07:06;23.30;99.90
20102;DHT22;10210;52.284;9.892;2022-08-19T08:09:52;23.40;99.90
20102;DHT22;10210;52.284;9.892;2022-08-19T08:12:22;23.40;99.90
20102;DHT22;10210;52.284;9.892;2022-08-19T08:14:55;23.40;99.90
20102;DHT22;10210;52.284;9.892;2022-08-19T08:17:26;23.50;99.90
20102;DHT22;10210;52.284;9.892;2022-08-19T08:19:53;23.60;99.90
20102;DHT22;10210;52.284;9.892;2022-08-19T08:22:22;23.60;99.90
20102;DHT22;10210;52.284;9.892;2022-08-19T08:25:17;23.80;99.90
20102;DHT22;10210;52.284;9.892;2022-08-19T08:27:46;23.80;99.90
20102;DHT22;10210;52.284;9.892;2022-08-19T08:30:21;24.00;99.90
20102;DHT22;10210;52.284;9.892;2022-08-19T08:32:51;24.10;99.90
20102;DHT22;10210;52.284;9.892;2022-08-19T08:35:21;24.20;99.90
20102;DHT22;10210;52.284;9.892;2022-08-19T08:37:52;24.40;99.90
20102;DHT22;10210;52.284;9.892;2022-08-19T08:40:38;24.60;99.90
20102;DHT22;10210;52.284;9.892;2022-08-19T08:43:30;24.70;99.90
20102;DHT22;10210;52.284;9.892;2022-08-19T08:46:04;25.00;99.90
20102;DHT22;10210;52.284;9.892;2022-08-19T08:48:46;25.20;99.90
20102;DHT22;10210;52.284;9.892;2022-08-19T08:51:52;25.60;99.90
20102;DHT22;10210;52.284;9.892;2022-08-19T08:54:20;25.80;99.90
20102;DHT22;10210;52.284;9.892;2022-08-19T08:56:53;26.00;99.90
20102;DHT22;10210;52.284;9.892;2022-08-19T08:59:24;26.20;99.90
20102;DHT22;10210;52.284;9.892;2022-08-19T09:01:58;26.40;99.90
20102;DHT22;10210;52.284;9.892;2022-08-19T09:04:24;26.50;99.90
20102;DHT22;10210;52.284;9.892;2022-08-19T09:09:50;26.70;99.90
20102;DHT22;10210;52.284;9.892;2022-08-19T09:15:44;26.80;99.90
20102;DHT22;10210;52.284;9.892;2022-08-19T09:18:14;26.90;99.90
20102;DHT22;10210;52.284;9.892;2022-08-19T09:20:41;26.90;99.90
20102;DHT22;10210;52.284;9.892;2022-08-19T09:23:08;27.00;99.90
20102;DHT22;10210;52.284;9.892;2022-08-19T09:25:34;27.10;99.90
20102;DHT22;10210;52.284;9.892;2022-08-19T09:28:00;27.10;99.90
20102;DHT22;10210;52.284;9.892;2022-08-19T09:30:34;27.20;99.90
20102;DHT22;10210;52.284;9.892;2022-08-19T09:33:05;27.20;99.90
20102;DHT22;10210;52.284;9.892;2022-08-19T09:35:34;27.30;99.90
20102;DHT22;10210;52.284;9.892;2022-08-19T09:38:01;27.30;99.90
20102;DHT22;10210;52.284;9.892;2022-08-19T09:40:28;27.40;99.90
20102;DHT22;10210;52.284;9.892;2022-08-19T09:42:55;27.50;99.90
20102;DHT22;10210;52.284;9.892;2022-08-19T09:45:22;27.50;99.90
20102;DHT22;10210;52.284;9.892;2022-08-19T09:47:51;27.60;99.90
20102;DHT22;10210;52.284;9.892;2022-08-19T09:50:18;27.60;99.90
20102;DHT22;10210;52.284;9.892;2022-08-19T09:52:44;27.70;99.90
20102;DHT22;10210;52.284;9.892;2022-08-19T09:55:11;27.80;99.90
20102;DHT22;10210;52.284;9.892;2022-08-19T09:57:38;27.80;99.90
20102;DHT22;10210;52.284;9.892;2022-08-19T10:00:07;27.90;99.90
20102;DHT22;10210;52.284;9.892;2022-08-19T10:02:35;28.00;99.90
20102;DHT22;10210;52.284;9.892;2022-08-19T10:05:07;28.10;99.90
20102;DHT22;10210;52.284;9.892;2022-08-19T10:07:52;28.20;99.90
20102;DHT22;10210;52.284;9.892;2022-08-19T10:10:18;28.30;99.90
20102;DHT22;10210;52.284;9.892;2022-08-19T10:12:46;28.40;99.90
20102;DHT22;10210;52.284;9.892;2022-08-19T10:15:13;28.50;99.90
20102;DHT22;10210;52.284;9.892;2022-08-19T10:17:39;28.60;99.90
20102;DHT22;10210;52.284;9.892;2022-08-19T10:20:05;28.60;99.90
20102;DHT22;10210;52.284;9.892;2022-08-19T10:22:31;28.70;99.90
20102;DHT22;10210;52.284;9.892;2022-08-19T10:24:57;28.80;99.90
20102;DHT22;10210;52.284;9.892;2022-08-19T10:27:24;28.80;99.90
20102;DHT22;10210;52.284;9.892;2022-08-19T10:29:50;28.80;99.90
20102;DHT22;10210;52.284;9.892;2022-08-19T10:32:16;28.80;99.90
20102;DHT22;10210;52.284;9.892;2022-08-19T10:34:42;28.80;99.90
20102;DHT22;10210;52.284;9.892;2022-08-19T10:37:09;28.80;99.90
20102;DHT22;10210;52.284;9.892;2022-08-19T10:39:36;28.70;99.90
20102;DHT22;10210;52.284;9.892;2022-08-19T10:42:08;28.70;99.90
20102;DHT22;10210;52.284;9.892;2022-08-19T10:44:39;28.70;99.90
20102;DHT22;10210;52.284;9.892;2022-08-19T10:47:05;28.80;99.90
20102;DHT22;10210;52.284;9.892;2022-08-19T10:49:31;28.80;99.90
20102;DHT22;10210;52.284;9.892;2022-08-19T10:51:57;28.70;99.90
20102;DHT22;10210;52.284;9.892;2022-08-19T10:54:43;28.70;99.90
20102;DHT22;10210;52.284;9.892;2022-08-19T10:57:31;28.70;99.90
20102;DHT22;10210;52.284;9.892;2022-08-19T10:59:56;28.60;99.90
20102;DHT22;10210;52.284;9.892;2022-08-19T11:02:23;28.60;99.90
20102;DHT22;10210;52.284;9.892;2022-08-19T11:04:49;28.60;99.90
20102;DHT22;10210;52.284;9.892;2022-08-19T11:07:16;28.60;99.90
20102;DHT22;10210;52.284;9.892;2022-08-19T11:09:42;28.60;99.90
20102;DHT22;10210;52.284;9.892;2022-08-19T11:12:09;28.60;99.90
20102;DHT22;10210;52.284;9.892;2022-08-19T11:14:38;28.60;99.90
20102;DHT22;10210;52.284;9.892;2022-08-19T11:17:05;28.60;99.90
20102;DHT22;10210;52.284;9.892;2022-08-19T11:19:31;28.60;99.90
20102;DHT22;10210;52.284;9.892;2022-08-19T11:21:57;28.60;99.90
20102;DHT22;10210;52.284;9.892;2022-08-19T11:24:29;28.70;99.90
20102;DHT22;10210;52.284;9.892;2022-08-19T11:27:05;28.70;99.90
20102;DHT22;10210;52.284;9.892;2022-08-19T11:29:34;28.70;99.90
20102;DHT22;10210;52.284;9.892;2022-08-19T11:32:08;28.70;99.90
20102;DHT22;10210;52.284;9.892;2022-08-19T11:34:36;28.70;99.90
20102;DHT22;10210;52.284;9.892;2022-08-19T11:37:03;28.70;99.90
20102;DHT22;10210;52.284;9.892;2022-08-19T11:39:30;28.80;99.90
20102;DHT22;10210;52.284;9.892;2022-08-19T11:41:58;28.90;99.90
20102;DHT22;10210;52.284;9.892;2022-08-19T11:44:24;28.90;99.90
20102;DHT22;10210;52.284;9.892;2022-08-19T11:46:51;29.00;99.90
20102;DHT22;10210;52.284;9.892;2022-08-19T11:49:19;29.00;99.90
20102;DHT22;10210;52.284;9.892;2022-08-19T11:51:47;29.10;99.90
20102;DHT22;10210;52.284;9.892;2022-08-19T11:54:16;29.10;99.90
20102;DHT22;10210;52.284;9.892;2022-08-19T11:56:44;29.10;99.90
20102;DHT22;10210;52.284;9.892;2022-08-19T11:59:11;29.20;99.90
20102;DHT22;10210;52.284;9.892;2022-08-19T12:01:37;29.20;99.90
20102;DHT22;10210;52.284;9.892;2022-08-19T12:04:02;29.30;99.90
20102;DHT22;10210;52.284;9.892;2022-08-19T12:06:32;29.30;99.90
20102;DHT22;10210;52.284;9.892;2022-08-19T12:09:02;29.30;99.90
20102;DHT22;10210;52.284;9.892;2022-08-19T12:11:30;29.40;99.90
20102;DHT22;10210;52.284;9.892;2022-08-19T12:13:56;29.40;99.90
20102;DHT22;10210;52.284;9.892;2022-08-19T12:16:25;29.40;99.90
20102;DHT22;10210;52.284;9.892;2022-08-19T12:18:52;29.40;99.90
20102;DHT22;10210;52.284;9.892;2022-08-19T12:21:24;29.50;99.90
20102;DHT22;10210;52.284;9.892;2022-08-19T12:23:54;29.60;99.90
20102;DHT22;10210;52.284;9.892;2022-08-19T12:26:23;29.60;99.90
20102;DHT22;10210;52.284;9.892;2022-08-19T12:28:49;29.70;99.90
20102;DHT22;10210;52.284;9.892;2022-08-19T12:31:16;29.70;99.90
20102;DHT22;10210;52.284;9.892;2022-08-19T12:33:42;29.70;99.90
20102;DHT22;10210;52.284;9.892;2022-08-19T12:36:10;29.70;99.90
20102;DHT22;10210;52.284;9.892;2022-08-19T12:38:41;29.80;99.90
20102;DHT22;10210;52.284;9.892;2022-08-19T12:41:12;29.80;99.90
20102;DHT22;10210;52.284;9.892;2022-08-19T12:43:40;29.90;99.90
20102;DHT22;10210;52.284;9.892;2022-08-19T12:46:08;30.00;99.90
20102;DHT22;10210;52.284;9.892;2022-08-19T12:48:34;30.00;99.90
20102;DHT22;10210;52.284;9.892;2022-08-19T12:51:05;30.10;99.90
20102;DHT22;10210;52.284;9.892;2022-08-19T12:53:32;30.10;99.90
20102;DHT22;10210;52.284;9.892;2022-08-19T12:55:58;30.30;99.90
20102;DHT22;10210;52.284;9.892;2022-08-19T12:58:26;30.40;99.90
20102;DHT22;10210;52.284;9.892;2022-08-19T13:00:55;30.40;99.90
20102;DHT22;10210;52.284;9.892;2022-08-19T13:03:21;30.40;99.90
20102;DHT22;10210;52.284;9.892;2022-08-19T13:05:55;30.40;99.90
20102;DHT22;10210;52.284;9.892;2022-08-19T13:08:23;30.50;99.90
20102;DHT22;10210;52.284;9.892;2022-08-19T13:10:49;30.50;99.90
20102;DHT22;10210;52.284;9.892;2022-08-19T13:13:15;30.60;99.90
20102;DHT22;10210;52.284;9.892;2022-08-19T13:15:41;30.60;99.90
20102;DHT22;10210;52.284;9.892;2022-08-19T13:18:10;30.70;99.90
20102;DHT22;10210;52.284;9.892;2022-08-19T13:20:39;30.70;99.90
20102;DHT22;10210;52.284;9.892;2022-08-19T13:23:09;30.70;99.90
20102;DHT22;10210;52.284;9.892;2022-08-19T13:25:35;30.70;99.90
20102;DHT22;10210;52.284;9.892;2022-08-19T13:28:02;30.70;99.90
20102;DHT22;10210;52.284;9.892;2022-08-19T13:30:30;30.70;99.90
20102;DHT22;10210;52.284;9.892;2022-08-19T13:33:31;30.70;99.90
20102;DHT22;10210;52.284;9.892;2022-08-19T13:35:59;30.80;99.90
20102;DHT22;10210;52.284;9.892;2022-08-19T13:38:28;30.70;99.90
20102;DHT22;10210;52.284;9.892;2022-08-19T13:40:54;30.70;99.90
20102;DHT22;10210;52.284;9.892;2022-08-19T13:43:24;30.80;99.90
20102;DHT22;10210;52.284;9.892;2022-08-19T13:45:53;30.80;99.90
20102;DHT22;10210;52.284;9.892;2022-08-19T13:48:25;30.80;99.90
20102;DHT22;10210;52.284;9.892;2022-08-19T13:50:55;30.80;99.90
20102;DHT22;10210;52.284;9.892;2022-08-19T13:53:21;30.90;99.90
20102;DHT22;10210;52.284;9.892;2022-08-19T13:55:47;31.00;99.90
20102;DHT22;10210;52.284;9.892;2022-08-19T13:58:15;31.00;99.90
20102;DHT22;10210;52.284;9.892;2022-08-19T14:00:43;31.10;99.90
20102;DHT22;10210;52.284;9.892;2022-08-19T14:03:11;31.10;99.90
20102;DHT22;10210;52.284;9.892;2022-08-19T14:05:38;31.20;99.90
20102;DHT22;10210;52.284;9.892;2022-08-19T14:08:05;31.30;99.90
20102;DHT22;10210;52.284;9.892;2022-08-19T14:10:31;31.30;99.90
20102;DHT22;10210;52.284;9.892;2022-08-19T14:12:59;31.30;99.90
20102;DHT22;10210;52.284;9.892;2022-08-19T14:15:27;31.30;99.90
20102;DHT22;10210;52.284;9.892;2022-08-19T14:17:54;31.40;99.90
20102;DHT22;10210;52.284;9.892;2022-08-19T14:20:20;31.40;99.90
20102;DHT22;10210;52.284;9.892;2022-08-19T14:22:47;31.50;99.90
20102;DHT22;10210;52.284;9.892;2022-08-19T14:25:17;31.50;99.90
20102;DHT22;10210;52.284;9.892;2022-08-19T14:27:46;31.50;99.90
20102;DHT22;10210;52.284;9.892;2022-08-19T14:30:15;31.60;99.90
20102;DHT22;10210;52.284;9.892;2022-08-19T14:32:45;31.60;99.90
20102;DHT22;10210;52.284;9.892;2022-08-19T14:35:12;31.70;99.90
20102;DHT22;10210;52.284;9.892;2022-08-19T14:37:40;31.70;99.90
20102;DHT22;10210;52.284;9.892;2022-08-19T14:40:09;31.80;99.90
20102;DHT22;10210;52.284;9.892;2022-08-19T14:42:37;31.90;99.90
20102;DHT22;10210;52.284;9.892;2022-08-19T14:45:03;32.00;99.90
20102;DHT22;10210;52.284;9.892;2022-08-19T14:47:33;32.00;99.90
20102;DHT22;10210;52.284;9.892;2022-08-19T14:50:00;32.10;99.90
20102;DHT22;10210;52.284;9.892;2022-08-19T14:52:26;32.20;99.90
20102;DHT22;10210;52.284;9.892;2022-08-19T14:54:52;32.30;99.90
20102;DHT22;10210;52.284;9.892;2022-08-19T14:57:18;32.30;99.90
20102;DHT22;10210;52.284;9.892;2022-08-19T14:59:44;32.30;99.90
20102;DHT22;10210;52.284;9.892;2022-08-19T15:02:10;32.30;99.90
20102;DHT22;10210;52.284;9.892;2022-08-19T15:04:37;32.30;99.90
20102;DHT22;10210;52.284;9.892;2022-08-19T15:07:04;32.40;99.90
20102;DHT22;10210;52.284;9.892;2022-08-19T15:09:31;32.40;99.90
20102;DHT22;10210;52.284;9.892;2022-08-19T15:11:59;32.40;99.90
20102;DHT22;10210;52.284;9.892;2022-08-19T15:14:27;32.40;99.90
20102;DHT22;10210;52.284;9.892;2022-08-19T15:16:59;32.40;99.90
20102;DHT22;10210;52.284;9.892;2022-08-19T15:19:24;32.40;99.90
20102;DHT22;10210;52.284;9.892;2022-08-19T15:21:50;32.40;99.90
20102;DHT22;10210;52.284;9.892;2022-08-19T15:24:16;32.30;99.90
20102;DHT22;10210;52.284;9.892;2022-08-19T15:26:42;32.30;99.90
20102;DHT22;10210;52.284;9.892;2022-08-19T15:29:08;32.30;99.90
20102;DHT22;10210;52.284;9.892;2022-08-19T15:31:36;32.30;99.90
20102;DHT22;10210;52.284;9.892;2022-08-19T15:34:03;32.30;99.90
20102;DHT22;10210;52.284;9.892;2022-08-19T15:36:31;32.30;99.90
20102;DHT22;10210;52.284;9.892;2022-08-19T15:38:58;32.30;99.30
20102;DHT22;10210;52.284;9.892;2022-08-19T15:41:27;32.20;99.90
20102;DHT22;10210;52.284;9.892;2022-08-19T15:44:05;32.20;99.70
20102;DHT22;10210;52.284;9.892;2022-08-19T15:46:35;32.20;99.20
20102;DHT22;10210;52.284;9.892;2022-08-19T15:49:04;32.20;98.30